sensor_id;sensor_type;location;lat;lon;timestamp;noise_LAeq;noise_LA_min;noise_LA_max;noise_LA01;noise_LA95
67294;Laerm;58160;51.434;5.978;2023-04-01T00:00:03;40.52;35.59;60.26;;
67294;Laerm;58160;51.434;5.978;2023-04-01T00:00:14;41.15;36.02;61.91;;
67294;Laerm;58160;51.434;5.978;2023-04-01T00:00:24;39.59;35.95;49.00;;
67294;Laerm;58160;51.434;5.978;2023-04-01T00:00:35;43.57;36.88;59.00;;
67294;Laerm;58160;51.434;5.978;2023-04-01T00:00:45;43.04;38.42;55.92;;
67294;Laerm;58160;51.434;5.978;2023-04-01T00:00:59;40.72;36.80;54.48;;
67294;Laerm;58160;51.434;5.978;2023-04-01T00:01:11;40.40;35.83;53.70;;
67294;Laerm;58160;51.434;5.978;2023-04-01T00:01:24;38.88;35.60;48.54;;
67294;Laerm;58160;51.434;5.978;2023-04-01T00:01:35;38.69;35.62;46.99;;
67294;Laerm;58160;51.434;5.978;2023-04-01T00:01:45;38.14;35.66;43.76;;
67294;Laerm;58160;51.434;5.978;2023-04-01T00:01:56;39.14;36.27;46.58;;
67294;Laerm;58160;51.434;5.978;2023-04-01T00:02:06;42.69;38.60;57.61;;
67294;Laerm;58160;51.434;5.978;2023-04-01T00:02:16;42.11;38.76;54.76;;
67294;Laerm;58160;51.434;5.978;2023-04-01T00:02:27;48.60;41.13;70.57;;
67294;Laerm;58160;51.434;5.978;2023-04-01T00:02:37;44.80;42.03;51.56;;
67294;Laerm;58160;51.434;5.978;2023-04-01T00:02:47;44.91;41.36;55.15;;
67294;Laerm;58160;51.434;5.978;2023-04-01T00:02:58;47.97;40.79;66.94;;
67294;Laerm;58160;51.434;5.978;2023-04-01T00:03:08;44.73;41.73;49.87;;
67294;Laerm;58160;51.434;5.978;2023-04-01T00:03:19;45.98;41.89;65.01;;
67294;Laerm;58160;51.434;5.978;2023-04-01T00:03:30;46.04;41.40;66.16;;
67294;Laerm;58160;51.434;5.978;2023-04-01T00:03:45;44.82;41.07;61.49;;
67294;Laerm;58160;51.434;5.978;2023-04-01T00:03:55;43.88;40.31;51.22;;
67294;Laerm;58160;51.434;5.978;2023-04-01T00:04:06;41.79;38.77;50.16;;
67294;Laerm;58160;51.434;5.978;2023-04-01T00:04:16;42.06;38.14;47.09;;
67294;Laerm;58160;51.434;5.978;2023-04-01T00:04:27;41.32;37.74;51.78;;
67294;Laerm;58160;51.434;5.978;2023-04-01T00:04:37;41.18;38.77;48.23;;
67294;Laerm;58160;51.434;5.978;2023-04-01T00:04:47;41.61;38.84;50.15;;
67294;Laerm;58160;51.434;5.978;2023-04-01T00:04:58;43.08;37.96;51.59;;
67294;Laerm;58160;51.434;5.978;2023-04-01T00:05:08;46.80;40.80;55.76;;
67294;Laerm;58160;51.434;5.978;2023-04-01T00:05:20;42.59;37.64;56.72;;
67294;Laerm;58160;51.434;5.978;2023-04-01T00:05:30;40.69;36.76;59.06;;
67294;Laerm;58160;51.434;5.978;2023-04-01T00:05:42;39.07;36.78;48.78;;
67294;Laerm;58160;51.434;5.978;2023-04-01T00:05:52;38.41;35.50;48.25;;
67294;Laerm;58160;51.434;5.978;2023-04-01T00:06:03;38.87;36.39;47.96;;
67294;Laerm;58160;51.434;5.978;2023-04-01T00:06:14;40.98;35.68;61.61;;
67294;Laerm;58160;51.434;5.978;2023-04-01T00:06:25;38.28;34.62;55.86;;
67294;Laerm;58160;51.434;5.978;2023-04-01T00:06:35;41.63;35.93;46.06;;
67294;Laerm;58160;51.434;5.978;2023-04-01T00:06:46;42.80;39.50;53.47;;
67294;Laerm;58160;51.434;5.978;2023-04-01T00:06:57;40.34;36.26;49.56;;
67294;Laerm;58160;51.434;5.978;2023-04-01T00:07:08;39.62;36.05;53.11;;
67294;Laerm;58160;51.434;5.978;2023-04-01T00:07:18;39.03;35.40;49.23;;
67294;Laerm;58160;51.434;5.978;2023-04-01T00:07:29;38.82;35.55;49.45;;
67294;Laerm;58160;51.434;5.978;2023-04-01T00:07:40;40.32;36.18;55.97;;
67294;Laerm;58160;51.434;5.978;2023-04-01T00:07:50;40.58;35.49;59.79;;
67294;Laerm;58160;51.434;5.978;2023-04-01T00:08:01;40.36;36.29;49.57;;
67294;Laerm;58160;51.434;5.978;2023-04-01T00:08:11;44.20;39.35;52.35;;
67294;Laerm;58160;51.434;5.978;2023-04-01T00:08:22;52.36;36.28;59.27;;
67294;Laerm;58160;51.434;5.978;2023-04-01T00:08:32;37.14;34.65;45.01;;
67294;Laerm;58160;51.434;5.978;2023-04-01T00:08:43;39.38;35.80;50.79;;
67294;Laerm;58160;51.434;5.978;2023-04-01T00:08:54;48.55;39.74;56.08;;
67294;Laerm;58160;51.434;5.978;2023-04-01T00:09:04;54.28;50.38;59.21;;
67294;Laerm;58160;51.434;5.978;2023-04-01T00:09:15;54.83;51.57;58.04;;
67294;Laerm;58160;51.434;5.978;2023-04-01T00:09:25;50.13;44.51;55.62;;
67294;Laerm;58160;51.434;5.978;2023-04-01T00:09:36;44.11;40.39;47.56;;
67294;Laerm;58160;51.434;5.978;2023-04-01T00:09:47;40.68;38.12;45.75;;
67294;Laerm;58160;51.434;5.978;2023-04-01T00:09:57;41.49;38.50;53.12;;
67294;Laerm;58160;51.434;5.978;2023-04-01T00:10:09;39.01;36.84;43.96;;
67294;Laerm;58160;51.434;5.978;2023-04-01T00:10:20;39.57;36.70;51.30;;
67294;Laerm;58160;51.434;5.978;2023-04-01T00:10:30;39.32;36.32;51.27;;
67294;Laerm;58160;51.434;5.978;2023-04-01T00:10:41;39.05;36.59;45.58;;
67294;Laerm;58160;51.434;5.978;2023-04-01T00:10:51;38.61;35.51;43.92;;
67294;Laerm;58160;51.434;5.978;2023-04-01T00:11:02;38.33;35.95;47.20;;
67294;Laerm;58160;51.434;5.978;2023-04-01T00:11:12;37.86;35.65;44.16;;
67294;Laerm;58160;51.434;5.978;2023-04-01T00:11:23;39.22;36.46;48.70;;
67294;Laerm;58160;51.434;5.978;2023-04-01T00:11:33;39.83;36.90;46.33;;
67294;Laerm;58160;51.434;5.978;2023-04-01T00:11:44;39.44;36.63;54.06;;
67294;Laerm;58160;51.434;5.978;2023-04-01T00:11:55;37.68;35.27;49.16;;
67294;Laerm;58160;51.434;5.978;2023-04-01T00:12:05;38.14;34.83;52.68;;
67294;Laerm;58160;51.434;5.978;2023-04-01T00:12:16;39.75;36.83;57.86;;
67294;Laerm;58160;51.434;5.978;2023-04-01T00:12:26;39.96;35.89;56.65;;
67294;Laerm;58160;51.434;5.978;2023-04-01T00:12:37;38.73;36.33;43.62;;
67294;Laerm;58160;51.434;5.978;2023-04-01T00:12:47;44.02;37.05;64.32;;
67294;Laerm;58160;51.434;5.978;2023-04-01T00:12:58;47.53;43.66;55.21;;
67294;Laerm;58160;51.434;5.978;2023-04-01T00:13:08;50.49;48.20;55.04;;
67294;Laerm;58160;51.434;5.978;2023-04-01T00:13:19;50.08;47.70;53.59;;
67294;Laerm;58160;51.434;5.978;2023-04-01T00:13:29;45.10;37.10;51.34;;
67294;Laerm;58160;51.434;5.978;2023-04-01T00:13:40;38.85;35.83;51.72;;
67294;Laerm;58160;51.434;5.978;2023-04-01T00:13:51;38.86;35.90;45.36;;
67294;Laerm;58160;51.434;5.978;2023-04-01T00:14:01;41.32;38.25;46.45;;
67294;Laerm;58160;51.434;5.978;2023-04-01T00:14:11;45.81;40.44;50.07;;
67294;Laerm;58160;51.434;5.978;2023-04-01T00:14:22;48.07;46.44;53.38;;
67294;Laerm;58160;51.434;5.978;2023-04-01T00:14:32;47.37;44.60;50.40;;
67294;Laerm;58160;51.434;5.978;2023-04-01T00:14:43;45.81;43.70;49.70;;
67294;Laerm;58160;51.434;5.978;2023-04-01T00:14:53;42.71;38.61;53.39;;
67294;Laerm;58160;51.434;5.978;2023-04-01T00:15:04;40.63;37.98;49.26;;
67294;Laerm;58160;51.434;5.978;2023-04-01T00:15:16;41.22;38.39;52.50;;
67294;Laerm;58160;51.434;5.978;2023-04-01T00:15:27;39.28;35.85;47.81;;
67294;Laerm;58160;51.434;5.978;2023-04-01T00:15:37;38.76;35.48;48.64;;
67294;Laerm;58160;51.434;5.978;2023-04-01T00:15:48;37.67;34.73;49.28;;
67294;Laerm;58160;51.434;5.978;2023-04-01T00:15:58;39.97;34.78;54.69;;
67294;Laerm;58160;51.434;5.978;2023-04-01T00:16:09;38.51;34.73;53.48;;
67294;Laerm;58160;51.434;5.978;2023-04-01T00:16:19;39.08;36.25;47.27;;
67294;Laerm;58160;51.434;5.978;2023-04-01T00:16:30;38.30;35.75;50.66;;
67294;Laerm;58160;51.434;5.978;2023-04-01T00:16:40;38.06;35.58;48.85;;
67294;Laerm;58160;51.434;5.978;2023-04-01T00:16:50;39.88;36.85;47.87;;
67294;Laerm;58160;51.434;5.978;2023-04-01T00:17:02;39.36;35.49;54.04;;
67294;Laerm;58160;51.434;5.978;2023-04-01T00:17:13;38.86;34.84;52.50;;
67294;Laerm;58160;51.434;5.978;2023-04-01T00:17:23;37.16;34.80;44.80;;
67294;Laerm;58160;51.434;5.978;2023-04-01T00:17:33;37.23;34.99;46.19;;
67294;Laerm;58160;51.434;5.978;2023-04-01T00:17:44;38.15;35.14;47.04;;
67294;Laerm;58160;51.434;5.978;2023-04-01T00:17:54;42.72;37.61;50.00;;
67294;Laerm;58160;51.434;5.978;2023-04-01T00:18:05;44.59;38.42;53.09;;
67294;Laerm;58160;51.434;5.978;2023-04-01T00:18:16;40.26;36.20;54.00;;
67294;Laerm;58160;51.434;5.978;2023-04-01T00:18:27;37.79;34.34;49.50;;
67294;Laerm;58160;51.434;5.978;2023-04-01T00:18:37;37.34;34.73;48.79;;
67294;Laerm;58160;51.434;5.978;2023-04-01T00:18:48;36.94;34.05;43.72;;
67294;Laerm;58160;51.434;5.978;2023-04-01T00:18:59;37.37;34.87;45.72;;
67294;Laerm;58160;51.434;5.978;2023-04-01T00:19:10;37.37;34.82;46.67;;
67294;Laerm;58160;51.434;5.978;2023-04-01T00:19:20;36.35;33.54;48.03;;
67294;Laerm;58160;51.434;5.978;2023-04-01T00:19:30;36.24;33.60;46.74;;
67294;Laerm;58160;51.434;5.978;2023-04-01T00:19:42;36.57;34.08;43.16;;
67294;Laerm;58160;51.434;5.978;2023-04-01T00:19:54;37.47;34.78;44.16;;
67294;Laerm;58160;51.434;5.978;2023-04-01T00:20:05;39.43;36.21;50.41;;
67294;Laerm;58160;51.434;5.978;2023-04-01T00:20:15;37.08;35.04;49.45;;
67294;Laerm;58160;51.434;5.978;2023-04-01T00:20:26;37.47;34.91;47.25;;
67294;Laerm;58160;51.434;5.978;2023-04-01T00:20:37;36.80;34.70;43.72;;
67294;Laerm;58160;51.434;5.978;2023-04-01T00:20:48;38.43;34.42;47.49;;
67294;Laerm;58160;51.434;5.978;2023-04-01T00:20:58;37.69;34.73;54.23;;
67294;Laerm;58160;51.434;5.978;2023-04-01T00:21:09;37.96;35.09;45.71;;
67294;Laerm;58160;51.434;5.978;2023-04-01T00:21:20;37.98;34.17;47.42;;
67294;Laerm;58160;51.434;5.978;2023-04-01T00:21:30;36.94;33.92;51.99;;
67294;Laerm;58160;51.434;5.978;2023-04-01T00:21:41;36.80;33.88;51.96;;
67294;Laerm;58160;51.434;5.978;2023-04-01T00:21:51;41.34;34.78;48.68;;
67294;Laerm;58160;51.434;5.978;2023-04-01T00:22:02;53.87;38.63;60.98;;
67294;Laerm;58160;51.434;5.978;2023-04-01T00:22:12;39.20;36.73;42.81;;
67294;Laerm;58160;51.434;5.978;2023-04-01T00:22:23;39.03;37.04;47.77;;
67294;Laerm;58160;51.434;5.978;2023-04-01T00:22:34;40.91;38.19;52.34;;
67294;Laerm;58160;51.434;5.978;2023-04-01T00:22:45;41.29;37.07;48.28;;
67294;Laerm;58160;51.434;5.978;2023-04-01T00:22:55;48.18;42.78;55.62;;
67294;Laerm;58160;51.434;5.978;2023-04-01T00:23:06;52.09;48.95;56.94;;
67294;Laerm;58160;51.434;5.978;2023-04-01T00:23:17;49.26;46.58;53.27;;
67294;Laerm;58160;51.434;5.978;2023-04-01T00:23:27;46.06;40.34;49.28;;
67294;Laerm;58160;51.434;5.978;2023-04-01T00:23:38;39.65;36.93;45.08;;
67294;Laerm;58160;51.434;5.978;2023-04-01T00:23:51;37.24;35.37;43.27;;
67294;Laerm;58160;51.434;5.978;2023-04-01T00:24:02;37.38;35.41;45.64;;
67294;Laerm;58160;51.434;5.978;2023-04-01T00:24:12;39.38;36.79;46.43;;
67294;Laerm;58160;51.434;5.978;2023-04-01T00:24:22;38.80;35.75;53.41;;
67294;Laerm;58160;51.434;5.978;2023-04-01T00:24:33;37.21;35.11;44.20;;
67294;Laerm;58160;51.434;5.978;2023-04-01T00:24:43;37.36;34.67;43.66;;
67294;Laerm;58160;51.434;5.978;2023-04-01T00:24:53;39.09;37.17;48.90;;
67294;Laerm;58160;51.434;5.978;2023-04-01T00:25:04;38.52;36.43;49.79;;
67294;Laerm;58160;51.434;5.978;2023-04-01T00:25:14;38.19;35.84;49.46;;
67294;Laerm;58160;51.434;5.978;2023-04-01T00:25:25;37.59;34.61;43.06;;
67294;Laerm;58160;51.434;5.978;2023-04-01T00:25:35;40.48;37.94;47.87;;
67294;Laerm;58160;51.434;5.978;2023-04-01T00:25:46;52.73;38.78;62.87;;
67294;Laerm;58160;51.434;5.978;2023-04-01T00:25:59;52.84;39.83;62.61;;
67294;Laerm;58160;51.434;5.978;2023-04-01T00:26:10;42.87;38.67;51.67;;
67294;Laerm;58160;51.434;5.978;2023-04-01T00:26:22;38.96;36.20;48.25;;
67294;Laerm;58160;51.434;5.978;2023-04-01T00:26:32;39.69;36.00;47.14;;
67294;Laerm;58160;51.434;5.978;2023-04-01T00:26:43;37.20;35.46;46.10;;
67294;Laerm;58160;51.434;5.978;2023-04-01T00:26:54;37.27;35.46;44.55;;
67294;Laerm;58160;51.434;5.978;2023-04-01T00:27:05;39.26;35.83;46.57;;
67294;Laerm;58160;51.434;5.978;2023-04-01T00:27:15;40.96;38.29;48.19;;
67294;Laerm;58160;51.434;5.978;2023-04-01T00:27:26;41.86;39.01;49.68;;
67294;Laerm;58160;51.434;5.978;2023-04-01T00:27:36;43.33;38.89;48.56;;
67294;Laerm;58160;51.434;5.978;2023-04-01T00:27:46;47.64;42.66;54.62;;
67294;Laerm;58160;51.434;5.978;2023-04-01T00:27:57;52.37;49.34;57.34;;
67294;Laerm;58160;51.434;5.978;2023-04-01T00:28:07;52.96;49.30;56.85;;
67294;Laerm;58160;51.434;5.978;2023-04-01T00:28:18;47.27;40.61;52.33;;
67294;Laerm;58160;51.434;5.978;2023-04-01T00:28:29;39.75;36.40;55.93;;
67294;Laerm;58160;51.434;5.978;2023-04-01T00:28:40;37.51;34.93;45.88;;
67294;Laerm;58160;51.434;5.978;2023-04-01T00:28:51;38.80;35.21;46.26;;
67294;Laerm;58160;51.434;5.978;2023-04-01T00:29:02;40.20;36.01;50.71;;
67294;Laerm;58160;51.434;5.978;2023-04-01T00:29:12;40.88;37.39;54.47;;
67294;Laerm;58160;51.434;5.978;2023-04-01T00:29:23;41.38;36.77;52.01;;
67294;Laerm;58160;51.434;5.978;2023-04-01T00:29:34;41.08;37.65;51.00;;
67294;Laerm;58160;51.434;5.978;2023-04-01T00:29:45;43.72;36.68;59.80;;
67294;Laerm;58160;51.434;5.978;2023-04-01T00:29:56;41.56;38.82;47.90;;
67294;Laerm;58160;51.434;5.978;2023-04-01T00:30:07;40.65;37.00;51.68;;
67294;Laerm;58160;51.434;5.978;2023-04-01T00:30:18;39.73;35.98;48.44;;
67294;Laerm;58160;51.434;5.978;2023-04-01T00:30:28;38.35;35.08;46.82;;
67294;Laerm;58160;51.434;5.978;2023-04-01T00:30:38;38.71;36.08;45.80;;
67294;Laerm;58160;51.434;5.978;2023-04-01T00:30:49;39.79;36.42;53.85;;
67294;Laerm;58160;51.434;5.978;2023-04-01T00:31:03;40.46;37.72;48.32;;
67294;Laerm;58160;51.434;5.978;2023-04-01T00:31:14;43.75;37.35;52.35;;
67294;Laerm;58160;51.434;5.978;2023-04-01T00:31:24;43.23;40.71;49.35;;
67294;Laerm;58160;51.434;5.978;2023-04-01T00:31:34;46.68;41.63;50.72;;
67294;Laerm;58160;51.434;5.978;2023-04-01T00:31:45;48.75;46.26;52.51;;
67294;Laerm;58160;51.434;5.978;2023-04-01T00:31:56;47.71;43.11;53.49;;
67294;Laerm;58160;51.434;5.978;2023-04-01T00:32:09;42.31;38.23;52.97;;
67294;Laerm;58160;51.434;5.978;2023-04-01T00:32:19;38.34;35.89;44.38;;
67294;Laerm;58160;51.434;5.978;2023-04-01T00:32:30;37.93;35.20;45.34;;
67294;Laerm;58160;51.434;5.978;2023-04-01T00:32:41;40.15;34.67;55.41;;
67294;Laerm;58160;51.434;5.978;2023-04-01T00:32:52;38.68;34.70;48.73;;
67294;Laerm;58160;51.434;5.978;2023-04-01T00:33:03;40.31;36.05;59.77;;
67294;Laerm;58160;51.434;5.978;2023-04-01T00:33:16;38.90;34.85;48.29;;
67294;Laerm;58160;51.434;5.978;2023-04-01T00:33:27;39.51;35.76;50.75;;
67294;Laerm;58160;51.434;5.978;2023-04-01T00:33:38;39.66;36.55;49.28;;
67294;Laerm;58160;51.434;5.978;2023-04-01T00:33:48;38.57;35.87;45.15;;
67294;Laerm;58160;51.434;5.978;2023-04-01T00:33:58;38.18;35.76;43.82;;
67294;Laerm;58160;51.434;5.978;2023-04-01T00:34:09;42.43;36.64;52.64;;
67294;Laerm;58160;51.434;5.978;2023-04-01T00:34:20;40.78;36.99;53.08;;
67294;Laerm;58160;51.434;5.978;2023-04-01T00:34:30;42.17;36.65;58.03;;
67294;Laerm;58160;51.434;5.978;2023-04-01T00:34:41;39.47;36.20;48.44;;
67294;Laerm;58160;51.434;5.978;2023-04-01T00:34:51;42.39;38.38;53.81;;
67294;Laerm;58160;51.434;5.978;2023-04-01T00:35:03;39.37;35.80;48.83;;
67294;Laerm;58160;51.434;5.978;2023-04-01T00:35:13;38.58;35.51;47.52;;
67294;Laerm;58160;51.434;5.978;2023-04-01T00:35:24;37.72;34.89;50.03;;
67294;Laerm;58160;51.434;5.978;2023-04-01T00:35:34;37.97;34.91;45.86;;
67294;Laerm;58160;51.434;5.978;2023-04-01T00:35:45;38.57;35.35;47.05;;
67294;Laerm;58160;51.434;5.978;2023-04-01T00:35:55;39.00;36.64;46.68;;
67294;Laerm;58160;51.434;5.978;2023-04-01T00:36:13;39.19;37.23;49.83;;
67294;Laerm;58160;51.434;5.978;2023-04-01T00:36:24;47.43;37.58;54.84;;
67294;Laerm;58160;51.434;5.978;2023-04-01T00:36:34;52.82;50.67;55.13;;
67294;Laerm;58160;51.434;5.978;2023-04-01T00:36:44;50.94;47.52;53.68;;
67294;Laerm;58160;51.434;5.978;2023-04-01T00:36:55;44.58;37.80;49.02;;
67294;Laerm;58160;51.434;5.978;2023-04-01T00:37:06;38.27;35.31;49.26;;
67294;Laerm;58160;51.434;5.978;2023-04-01T00:37:16;37.54;34.36;51.38;;
67294;Laerm;58160;51.434;5.978;2023-04-01T00:37:27;37.71;33.95;47.16;;
67294;Laerm;58160;51.434;5.978;2023-04-01T00:37:38;38.03;34.99;48.96;;
67294;Laerm;58160;51.434;5.978;2023-04-01T00:37:49;38.33;34.57;48.99;;
67294;Laerm;58160;51.434;5.978;2023-04-01T00:38:00;37.32;34.40;45.32;;
67294;Laerm;58160;51.434;5.978;2023-04-01T00:38:11;37.04;34.66;45.01;;
67294;Laerm;58160;51.434;5.978;2023-04-01T00:38:22;37.16;34.89;45.67;;
67294;Laerm;58160;51.434;5.978;2023-04-01T00:38:32;40.69;35.23;47.57;;
67294;Laerm;58160;51.434;5.978;2023-04-01T00:38:43;45.06;39.88;57.47;;
67294;Laerm;58160;51.434;5.978;2023-04-01T00:38:53;39.91;36.17;54.32;;
67294;Laerm;58160;51.434;5.978;2023-04-01T00:39:04;37.90;35.61;44.31;;
67294;Laerm;58160;51.434;5.978;2023-04-01T00:39:14;40.76;36.08;61.39;;
67294;Laerm;58160;51.434;5.978;2023-04-01T00:39:24;39.44;36.07;50.24;;
67294;Laerm;58160;51.434;5.978;2023-04-01T00:39:36;39.37;36.07;51.91;;
67294;Laerm;58160;51.434;5.978;2023-04-01T00:39:46;38.00;35.94;44.92;;
67294;Laerm;58160;51.434;5.978;2023-04-01T00:39:57;38.90;36.03;46.16;;
67294;Laerm;58160;51.434;5.978;2023-04-01T00:40:08;42.15;37.60;57.38;;
67294;Laerm;58160;51.434;5.978;2023-04-01T00:40:28;38.64;35.92;49.56;;
67294;Laerm;58160;51.434;5.978;2023-04-01T00:40:40;37.79;34.91;46.33;;
67294;Laerm;58160;51.434;5.978;2023-04-01T00:40:51;37.71;34.77;48.78;;
67294;Laerm;58160;51.434;5.978;2023-04-01T00:41:07;38.86;34.69;56.96;;
67294;Laerm;58160;51.434;5.978;2023-04-01T00:41:18;38.10;35.48;52.95;;
67294;Laerm;58160;51.434;5.978;2023-04-01T00:41:29;38.41;35.69;51.91;;
67294;Laerm;58160;51.434;5.978;2023-04-01T00:41:39;42.29;37.15;53.51;;
67294;Laerm;58160;51.434;5.978;2023-04-01T00:41:50;38.89;36.26;46.79;;
67294;Laerm;58160;51.434;5.978;2023-04-01T00:42:01;40.31;36.38;54.59;;
67294;Laerm;58160;51.434;5.978;2023-04-01T00:42:15;44.52;35.58;55.04;;
67294;Laerm;58160;51.434;5.978;2023-04-01T00:42:25;38.56;35.92;47.96;;
67294;Laerm;58160;51.434;5.978;2023-04-01T00:42:35;38.79;36.09;44.64;;
67294;Laerm;58160;51.434;5.978;2023-04-01T00:42:46;38.68;36.07;49.34;;
67294;Laerm;58160;51.434;5.978;2023-04-01T00:42:56;39.61;36.05;52.79;;
67294;Laerm;58160;51.434;5.978;2023-04-01T00:43:14;38.99;35.76;44.23;;
67294;Laerm;58160;51.434;5.978;2023-04-01T00:43:25;40.39;37.35;50.71;;
67294;Laerm;58160;51.434;5.978;2023-04-01T00:43:36;39.42;36.47;46.62;;
67294;Laerm;58160;51.434;5.978;2023-04-01T00:43:47;39.66;37.20;46.36;;
67294;Laerm;58160;51.434;5.978;2023-04-01T00:44:45;41.51;38.10;55.63;;
67294;Laerm;58160;51.434;5.978;2023-04-01T00:44:55;43.20;38.50;58.85;;
67294;Laerm;58160;51.434;5.978;2023-04-01T00:45:23;41.29;38.61;50.42;;
67294;Laerm;58160;51.434;5.978;2023-04-01T00:45:37;42.65;37.40;57.16;;
67294;Laerm;58160;51.434;5.978;2023-04-01T00:45:48;43.39;37.81;51.68;;
67294;Laerm;58160;51.434;5.978;2023-04-01T00:45:59;40.65;37.63;51.24;;
67294;Laerm;58160;51.434;5.978;2023-04-01T00:46:09;37.71;34.87;51.01;;
67294;Laerm;58160;51.434;5.978;2023-04-01T00:46:26;37.89;35.19;43.12;;
67294;Laerm;58160;51.434;5.978;2023-04-01T00:46:36;38.05;34.68;49.23;;
67294;Laerm;58160;51.434;5.978;2023-04-01T00:46:49;37.79;35.13;45.54;;
67294;Laerm;58160;51.434;5.978;2023-04-01T00:47:00;38.01;35.80;46.95;;
67294;Laerm;58160;51.434;5.978;2023-04-01T00:47:11;37.66;35.26;45.02;;
67294;Laerm;58160;51.434;5.978;2023-04-01T00:47:22;38.98;34.60;53.43;;
67294;Laerm;58160;51.434;5.978;2023-04-01T00:47:33;37.67;35.22;47.40;;
67294;Laerm;58160;51.434;5.978;2023-04-01T00:47:46;38.21;35.87;44.95;;
67294;Laerm;58160;51.434;5.978;2023-04-01T00:47:56;38.93;36.39;47.97;;
67294;Laerm;58160;51.434;5.978;2023-04-01T00:48:10;39.38;35.40;55.21;;
67294;Laerm;58160;51.434;5.978;2023-04-01T00:48:25;37.17;34.47;47.36;;
67294;Laerm;58160;51.434;5.978;2023-04-01T00:48:38;39.15;35.81;49.18;;
67294;Laerm;58160;51.434;5.978;2023-04-01T00:48:52;43.46;35.14;61.80;;
67294;Laerm;58160;51.434;5.978;2023-04-01T00:49:03;38.55;33.52;49.80;;
67294;Laerm;58160;51.434;5.978;2023-04-01T00:49:14;38.38;34.77;47.59;;
67294;Laerm;58160;51.434;5.978;2023-04-01T00:49:31;38.76;34.48;49.84;;
67294;Laerm;58160;51.434;5.978;2023-04-01T00:49:45;37.72;34.31;46.06;;
67294;Laerm;58160;51.434;5.978;2023-04-01T00:49:55;39.50;36.59;47.49;;
67294;Laerm;58160;51.434;5.978;2023-04-01T00:50:06;42.37;37.79;49.68;;
67294;Laerm;58160;51.434;5.978;2023-04-01T00:50:16;45.59;38.44;59.75;;
67294;Laerm;58160;51.434;5.978;2023-04-01T00:50:27;41.10;38.80;52.28;;
67294;Laerm;58160;51.434;5.978;2023-04-01T00:50:39;39.62;36.09;51.44;;
67294;Laerm;58160;51.434;5.978;2023-04-01T00:51:12;48.94;39.30;66.09;;
67294;Laerm;58160;51.434;5.978;2023-04-01T00:51:22;44.63;35.06;62.93;;
67294;Laerm;58160;51.434;5.978;2023-04-01T00:51:33;38.38;35.42;46.57;;
67294;Laerm;58160;51.434;5.978;2023-04-01T00:51:47;38.16;34.61;44.32;;
67294;Laerm;58160;51.434;5.978;2023-04-01T00:51:58;36.41;33.56;48.13;;
67294;Laerm;58160;51.434;5.978;2023-04-01T00:52:10;37.10;33.91;45.18;;
67294;Laerm;58160;51.434;5.978;2023-04-01T00:52:22;37.56;35.28;43.59;;
67294;Laerm;58160;51.434;5.978;2023-04-01T00:52:33;37.90;34.53;45.71;;
67294;Laerm;58160;51.434;5.978;2023-04-01T00:52:44;41.29;37.51;47.44;;
67294;Laerm;58160;51.434;5.978;2023-04-01T00:52:54;40.98;36.81;51.16;;
67294;Laerm;58160;51.434;5.978;2023-04-01T00:53:05;40.83;37.17;48.21;;
67294;Laerm;58160;51.434;5.978;2023-04-01T00:53:17;40.76;36.90;48.75;;
67294;Laerm;58160;51.434;5.978;2023-04-01T00:53:28;43.20;37.32;54.82;;
67294;Laerm;58160;51.434;5.978;2023-04-01T00:53:41;40.90;35.60;51.30;;
67294;Laerm;58160;51.434;5.978;2023-04-01T00:53:52;39.03;36.04;44.15;;
67294;Laerm;58160;51.434;5.978;2023-04-01T00:54:04;42.71;34.57;55.87;;
67294;Laerm;58160;51.434;5.978;2023-04-01T00:54:15;37.13;35.18;44.33;;
67294;Laerm;58160;51.434;5.978;2023-04-01T00:54:26;36.50;34.56;45.64;;
67294;Laerm;58160;51.434;5.978;2023-04-01T00:54:38;36.55;34.12;43.94;;
67294;Laerm;58160;51.434;5.978;2023-04-01T00:54:54;36.23;34.53;42.04;;
67294;Laerm;58160;51.434;5.978;2023-04-01T00:55:05;36.52;34.33;43.45;;
67294;Laerm;58160;51.434;5.978;2023-04-01T00:55:17;40.30;35.05;46.24;;
67294;Laerm;58160;51.434;5.978;2023-04-01T00:55:30;41.52;37.52;53.82;;
67294;Laerm;58160;51.434;5.978;2023-04-01T00:55:43;38.98;36.92;43.62;;
67294;Laerm;58160;51.434;5.978;2023-04-01T00:56:05;40.66;35.81;49.41;;
67294;Laerm;58160;51.434;5.978;2023-04-01T00:56:30;40.53;37.32;51.18;;
67294;Laerm;58160;51.434;5.978;2023-04-01T00:56:46;44.19;38.26;50.36;;
67294;Laerm;58160;51.434;5.978;2023-04-01T00:57:06;53.53;47.11;58.12;;
67294;Laerm;58160;51.434;5.978;2023-04-01T00:57:32;38.93;36.16;45.80;;
67294;Laerm;58160;51.434;5.978;2023-04-01T00:57:45;38.34;35.81;45.32;;
67294;Laerm;58160;51.434;5.978;2023-04-01T00:57:55;38.03;35.80;41.41;;
67294;Laerm;58160;51.434;5.978;2023-04-01T00:58:07;38.99;36.75;47.42;;
67294;Laerm;58160;51.434;5.978;2023-04-01T00:58:20;42.06;37.96;56.31;;
67294;Laerm;58160;51.434;5.978;2023-04-01T00:58:32;44.83;38.92;57.44;;
67294;Laerm;58160;51.434;5.978;2023-04-01T00:58:46;42.78;37.78;55.57;;
67294;Laerm;58160;51.434;5.978;2023-04-01T00:58:59;41.08;36.96;57.05;;
67294;Laerm;58160;51.434;5.978;2023-04-01T00:59:11;39.18;36.30;49.32;;
67294;Laerm;58160;51.434;5.978;2023-04-01T00:59:27;38.98;36.51;48.79;;
67294;Laerm;58160;51.434;5.978;2023-04-01T00:59:40;38.89;36.04;51.35;;
67294;Laerm;58160;51.434;5.978;2023-04-01T00:59:52;47.13;39.67;55.95;;
67294;Laerm;58160;51.434;5.978;2023-04-01T01:00:05;50.19;47.40;52.60;;
67294;Laerm;58160;51.434;5.978;2023-04-01T01:00:17;49.08;44.77;54.59;;
67294;Laerm;58160;51.434;5.978;2023-04-01T01:00:30;45.65;42.81;53.74;;
67294;Laerm;58160;51.434;5.978;2023-04-01T01:00:41;46.80;40.00;59.07;;
67294;Laerm;58160;51.434;5.978;2023-04-01T01:00:52;41.84;37.80;52.25;;
67294;Laerm;58160;51.434;5.978;2023-04-01T01:01:04;39.01;36.31;45.24;;
67294;Laerm;58160;51.434;5.978;2023-04-01T01:01:14;37.96;36.16;47.96;;
67294;Laerm;58160;51.434;5.978;2023-04-01T01:01:25;39.24;36.27;46.06;;
67294;Laerm;58160;51.434;5.978;2023-04-01T01:01:35;41.82;36.62;55.92;;
67294;Laerm;58160;51.434;5.978;2023-04-01T01:01:46;38.98;35.79;54.37;;
67294;Laerm;58160;51.434;5.978;2023-04-01T01:01:56;37.81;35.42;50.39;;
67294;Laerm;58160;51.434;5.978;2023-04-01T01:02:07;37.40;35.46;42.00;;
67294;Laerm;58160;51.434;5.978;2023-04-01T01:02:19;38.37;35.81;50.65;;
67294;Laerm;58160;51.434;5.978;2023-04-01T01:02:29;37.63;35.75;47.54;;
67294;Laerm;58160;51.434;5.978;2023-04-01T01:02:43;38.02;35.76;50.10;;
67294;Laerm;58160;51.434;5.978;2023-04-01T01:02:54;41.70;35.92;63.28;;
67294;Laerm;58160;51.434;5.978;2023-04-01T01:03:04;38.74;36.44;45.12;;
67294;Laerm;58160;51.434;5.978;2023-04-01T01:03:15;41.60;36.93;51.21;;
67294;Laerm;58160;51.434;5.978;2023-04-01T01:03:26;44.42;38.20;55.02;;
67294;Laerm;58160;51.434;5.978;2023-04-01T01:03:39;39.18;36.24;47.54;;
67294;Laerm;58160;51.434;5.978;2023-04-01T01:03:52;39.14;35.88;47.30;;
67294;Laerm;58160;51.434;5.978;2023-04-01T01:04:03;37.79;35.96;45.05;;
67294;Laerm;58160;51.434;5.978;2023-04-01T01:04:23;39.15;36.81;50.95;;
67294;Laerm;58160;51.434;5.978;2023-04-01T01:04:34;40.21;37.28;51.96;;
67294;Laerm;58160;51.434;5.978;2023-04-01T01:04:46;38.88;36.87;45.62;;